sensor_id;sensor_type;location;lat;lon;timestamp;temperature;humidity
14401;DHT22;7285;50.894;5.462;2023-01-01T00:00:15;15.40;1.00
14401;DHT22;7285;50.894;5.462;2023-01-01T00:02:42;15.30;1.00
14401;DHT22;7285;50.894;5.462;2023-01-01T00:05:09;15.30;1.00
14401;DHT22;7285;50.894;5.462;2023-01-01T00:07:36;15.20;1.00
14401;DHT22;7285;50.894;5.462;2023-01-01T00:10:15;15.10;1.00
14401;DHT22;7285;50.894;5.462;2023-01-01T00:12:59;15.10;1.00
14401;DHT22;7285;50.894;5.462;2023-01-01T00:15:27;15.10;1.00
14401;DHT22;7285;50.894;5.462;2023-01-01T00:17:54;15.00;1.00
14401;DHT22;7285;50.894;5.462;2023-01-01T00:20:22;15.10;1.00
14401;DHT22;7285;50.894;5.462;2023-01-01T00:22:49;15.10;1.00
14401;DHT22;7285;50.894;5.462;2023-01-01T00:25:17;15.20;1.00
14401;DHT22;7285;50.894;5.462;2023-01-01T00:27:44;15.20;1.00
14401;DHT22;7285;50.894;5.462;2023-01-01T00:30:13;15.20;1.00
14401;DHT22;7285;50.894;5.462;2023-01-01T00:32:40;15.10;1.00
14401;DHT22;7285;50.894;5.462;2023-01-01T00:35:08;15.20;1.00
14401;DHT22;7285;50.894;5.462;2023-01-01T00:40:37;15.10;1.00
14401;DHT22;7285;50.894;5.462;2023-01-01T00:43:04;15.00;1.00
14401;DHT22;7285;50.894;5.462;2023-01-01T00:45:39;15.00;1.00
14401;DHT22;7285;50.894;5.462;2023-01-01T00:48:08;15.00;1.00
14401;DHT22;7285;50.894;5.462;2023-01-01T00:50:35;15.10;1.00
14401;DHT22;7285;50.894;5.462;2023-01-01T00:53:02;15.10;1.00
14401;DHT22;7285;50.894;5.462;2023-01-01T00:55:29;15.00;1.00
14401;DHT22;7285;50.894;5.462;2023-01-01T00:57:56;14.90;1.00
14401;DHT22;7285;50.894;5.462;2023-01-01T01:00:23;14.90;1.00
14401;DHT22;7285;50.894;5.462;2023-01-01T01:02:52;15.00;1.00
14401;DHT22;7285;50.894;5.462;2023-01-01T01:05:22;15.00;1.00
14401;DHT22;7285;50.894;5.462;2023-01-01T01:07:49;15.00;1.00
14401;DHT22;7285;50.894;5.462;2023-01-01T01:10:16;15.00;1.00
14401;DHT22;7285;50.894;5.462;2023-01-01T01:12:46;14.90;1.00
14401;DHT22;7285;50.894;5.462;2023-01-01T01:15:13;14.90;1.00
14401;DHT22;7285;50.894;5.462;2023-01-01T01:17:40;15.00;1.00
14401;DHT22;7285;50.894;5.462;2023-01-01T01:20:10;15.00;1.00
14401;DHT22;7285;50.894;5.462;2023-01-01T01:22:37;15.00;1.00
14401;DHT22;7285;50.894;5.462;2023-01-01T01:25:05;15.00;1.00
14401;DHT22;7285;50.894;5.462;2023-01-01T01:27:32;15.00;1.00
14401;DHT22;7285;50.894;5.462;2023-01-01T01:29:59;15.00;1.00
14401;DHT22;7285;50.894;5.462;2023-01-01T01:32:26;14.90;1.00
14401;DHT22;7285;50.894;5.462;2023-01-01T01:34:54;15.00;1.00
14401;DHT22;7285;50.894;5.462;2023-01-01T01:37:22;15.00;1.00
14401;DHT22;7285;50.894;5.462;2023-01-01T01:39:49;15.00;1.00
14401;DHT22;7285;50.894;5.462;2023-01-01T01:42:17;15.00;1.00
14401;DHT22;7285;50.894;5.462;2023-01-01T01:44:54;15.00;1.00
14401;DHT22;7285;50.894;5.462;2023-01-01T01:47:26;15.00;1.00
14401;DHT22;7285;50.894;5.462;2023-01-01T01:49:57;15.00;1.00
14401;DHT22;7285;50.894;5.462;2023-01-01T01:52:27;15.00;1.00
14401;DHT22;7285;50.894;5.462;2023-01-01T01:54:56;15.00;1.00
14401;DHT22;7285;50.894;5.462;2023-01-01T01:57:23;15.00;1.00
14401;DHT22;7285;50.894;5.462;2023-01-01T01:59:52;15.00;1.00
14401;DHT22;7285;50.894;5.462;2023-01-01T02:02:26;14.90;99.90
14401;DHT22;7285;50.894;5.462;2023-01-01T02:04:55;15.00;99.90
14401;DHT22;7285;50.894;5.462;2023-01-01T02:07:23;14.90;99.90
14401;DHT22;7285;50.894;5.462;2023-01-01T02:09:54;14.90;99.90
14401;DHT22;7285;50.894;5.462;2023-01-01T02:12:23;14.90;99.90
14401;DHT22;7285;50.894;5.462;2023-01-01T02:14:51;15.00;99.90
14401;DHT22;7285;50.894;5.462;2023-01-01T02:17:22;14.90;99.90
14401;DHT22;7285;50.894;5.462;2023-01-01T02:20:06;14.90;99.90
14401;DHT22;7285;50.894;5.462;2023-01-01T02:23:08;14.90;99.90
14401;DHT22;7285;50.894;5.462;2023-01-01T02:25:48;14.80;99.90
14401;DHT22;7285;50.894;5.462;2023-01-01T02:28:31;14.80;99.90
14401;DHT22;7285;50.894;5.462;2023-01-01T02:31:00;14.80;99.90
14401;DHT22;7285;50.894;5.462;2023-01-01T02:33:28;14.80;99.90
14401;DHT22;7285;50.894;5.462;2023-01-01T02:35:57;14.70;99.90
14401;DHT22;7285;50.894;5.462;2023-01-01T02:38:28;14.70;99.90
14401;DHT22;7285;50.894;5.462;2023-01-01T02:40:58;14.80;99.90
14401;DHT22;7285;50.894;5.462;2023-01-01T02:43:27;14.70;99.90
14401;DHT22;7285;50.894;5.462;2023-01-01T02:45:56;14.80;99.90
14401;DHT22;7285;50.894;5.462;2023-01-01T02:48:39;14.70;99.90
14401;DHT22;7285;50.894;5.462;2023-01-01T02:51:26;14.80;99.90
14401;DHT22;7285;50.894;5.462;2023-01-01T02:54:03;14.60;99.90
14401;DHT22;7285;50.894;5.462;2023-01-01T02:56:35;14.50;99.90
14401;DHT22;7285;50.894;5.462;2023-01-01T02:59:14;14.40;99.90
14401;DHT22;7285;50.894;5.462;2023-01-01T03:02:11;14.40;99.90
14401;DHT22;7285;50.894;5.462;2023-01-01T03:04:53;14.50;99.90
14401;DHT22;7285;50.894;5.462;2023-01-01T03:07:28;14.40;99.90
14401;DHT22;7285;50.894;5.462;2023-01-01T03:10:03;14.50;99.90
14401;DHT22;7285;50.894;5.462;2023-01-01T03:12:34;14.40;99.90
14401;DHT22;7285;50.894;5.462;2023-01-01T03:15:14;14.30;99.90
14401;DHT22;7285;50.894;5.462;2023-01-01T03:17:50;14.30;99.90
14401;DHT22;7285;50.894;5.462;2023-01-01T03:20:23;14.40;99.90
14401;DHT22;7285;50.894;5.462;2023-01-01T03:22:53;14.40;99.90
14401;DHT22;7285;50.894;5.462;2023-01-01T03:25:22;14.40;99.90
14401;DHT22;7285;50.894;5.462;2023-01-01T03:27:51;14.40;99.90
14401;DHT22;7285;50.894;5.462;2023-01-01T03:30:22;14.40;99.90
14401;DHT22;7285;50.894;5.462;2023-01-01T03:32:55;14.40;99.90
14401;DHT22;7285;50.894;5.462;2023-01-01T03:35:30;14.40;99.90
14401;DHT22;7285;50.894;5.462;2023-01-01T03:38:01;14.50;99.90
14401;DHT22;7285;50.894;5.462;2023-01-01T03:40:31;14.40;99.90
14401;DHT22;7285;50.894;5.462;2023-01-01T03:43:05;14.40;99.90
14401;DHT22;7285;50.894;5.462;2023-01-01T03:45:37;14.40;99.90
14401;DHT22;7285;50.894;5.462;2023-01-01T03:48:07;14.50;99.90
14401;DHT22;7285;50.894;5.462;2023-01-01T03:50:44;14.40;99.90
14401;DHT22;7285;50.894;5.462;2023-01-01T03:53:21;14.40;99.90
14401;DHT22;7285;50.894;5.462;2023-01-01T03:55:57;14.40;99.90
14401;DHT22;7285;50.894;5.462;2023-01-01T03:58:32;14.50;99.90
14401;DHT22;7285;50.894;5.462;2023-01-01T04:01:07;14.60;99.90
14401;DHT22;7285;50.894;5.462;2023-01-01T04:03:39;14.50;99.90
14401;DHT22;7285;50.894;5.462;2023-01-01T04:06:10;14.50;99.90
14401;DHT22;7285;50.894;5.462;2023-01-01T04:08:37;14.40;99.90
14401;DHT22;7285;50.894;5.462;2023-01-01T04:11:07;14.40;99.90
14401;DHT22;7285;50.894;5.462;2023-01-01T04:13:50;14.40;99.90
14401;DHT22;7285;50.894;5.462;2023-01-01T04:16:17;14.50;99.90
14401;DHT22;7285;50.894;5.462;2023-01-01T04:18:49;14.50;99.90
14401;DHT22;7285;50.894;5.462;2023-01-01T04:21:16;14.40;99.90
14401;DHT22;7285;50.894;5.462;2023-01-01T04:23:43;14.40;99.90
14401;DHT22;7285;50.894;5.462;2023-01-01T04:26:12;14.40;99.90
14401;DHT22;7285;50.894;5.462;2023-01-01T04:28:42;14.30;99.90
14401;DHT22;7285;50.894;5.462;2023-01-01T04:31:10;14.30;99.90
14401;DHT22;7285;50.894;5.462;2023-01-01T04:33:37;14.40;99.90
14401;DHT22;7285;50.894;5.462;2023-01-01T04:36:08;14.30;99.90
14401;DHT22;7285;50.894;5.462;2023-01-01T04:38:36;14.30;99.90
14401;DHT22;7285;50.894;5.462;2023-01-01T04:41:04;14.30;99.90
14401;DHT22;7285;50.894;5.462;2023-01-01T04:43:32;14.30;99.90
14401;DHT22;7285;50.894;5.462;2023-01-01T04:46:01;14.20;99.90
14401;DHT22;7285;50.894;5.462;2023-01-01T04:48:34;14.20;99.90
14401;DHT22;7285;50.894;5.462;2023-01-01T04:51:05;14.20;99.90
14401;DHT22;7285;50.894;5.462;2023-01-01T04:53:34;14.10;99.90
14401;DHT22;7285;50.894;5.462;2023-01-01T04:56:03;14.20;1.00
14401;DHT22;7285;50.894;5.462;2023-01-01T04:58:30;14.20;99.90
14401;DHT22;7285;50.894;5.462;2023-01-01T05:00:58;14.10;99.90
14401;DHT22;7285;50.894;5.462;2023-01-01T05:03:27;14.10;99.90
14401;DHT22;7285;50.894;5.462;2023-01-01T05:06:01;14.10;99.90
14401;DHT22;7285;50.894;5.462;2023-01-01T05:08:31;14.10;99.90
14401;DHT22;7285;50.894;5.462;2023-01-01T05:11:02;14.20;99.90
14401;DHT22;7285;50.894;5.462;2023-01-01T05:13:29;14.10;99.90
14401;DHT22;7285;50.894;5.462;2023-01-01T05:15:56;14.20;99.90
14401;DHT22;7285;50.894;5.462;2023-01-01T05:18:27;14.20;99.90
14401;DHT22;7285;50.894;5.462;2023-01-01T05:20:58;14.10;99.90
14401;DHT22;7285;50.894;5.462;2023-01-01T05:23:26;14.10;99.90
14401;DHT22;7285;50.894;5.462;2023-01-01T05:25:56;14.20;99.90
14401;DHT22;7285;50.894;5.462;2023-01-01T05:28:24;14.20;99.90
14401;DHT22;7285;50.894;5.462;2023-01-01T05:30:52;14.20;99.90
14401;DHT22;7285;50.894;5.462;2023-01-01T05:33:21;14.10;99.90
14401;DHT22;7285;50.894;5.462;2023-01-01T05:35:52;14.10;99.90
14401;DHT22;7285;50.894;5.462;2023-01-01T05:38:20;14.00;99.90
14401;DHT22;7285;50.894;5.462;2023-01-01T05:40:47;14.00;1.00
14401;DHT22;7285;50.894;5.462;2023-01-01T05:43:16;14.00;99.90
14401;DHT22;7285;50.894;5.462;2023-01-01T05:45:43;14.00;99.90
14401;DHT22;7285;50.894;5.462;2023-01-01T05:48:11;14.10;99.90
14401;DHT22;7285;50.894;5.462;2023-01-01T05:50:38;14.10;1.00
14401;DHT22;7285;50.894;5.462;2023-01-01T05:53:05;14.10;99.90
14401;DHT22;7285;50.894;5.462;2023-01-01T05:55:32;14.00;99.90
14401;DHT22;7285;50.894;5.462;2023-01-01T05:57:59;14.00;99.90
14401;DHT22;7285;50.894;5.462;2023-01-01T06:00:27;14.00;99.90
14401;DHT22;7285;50.894;5.462;2023-01-01T06:03:03;14.00;99.90
14401;DHT22;7285;50.894;5.462;2023-01-01T06:05:30;14.00;99.90
14401;DHT22;7285;50.894;5.462;2023-01-01T06:07:57;14.00;99.90
14401;DHT22;7285;50.894;5.462;2023-01-01T06:10:24;14.00;1.00
14401;DHT22;7285;50.894;5.462;2023-01-01T06:12:54;14.00;99.90
14401;DHT22;7285;50.894;5.462;2023-01-01T06:15:23;14.00;1.00
14401;DHT22;7285;50.894;5.462;2023-01-01T06:17:51;13.90;1.00
14401;DHT22;7285;50.894;5.462;2023-01-01T06:20:19;14.00;1.00
14401;DHT22;7285;50.894;5.462;2023-01-01T06:22:46;13.90;1.00
14401;DHT22;7285;50.894;5.462;2023-01-01T06:25:13;13.90;1.00
14401;DHT22;7285;50.894;5.462;2023-01-01T06:27:40;13.90;1.00
14401;DHT22;7285;50.894;5.462;2023-01-01T06:30:08;13.80;1.00
14401;DHT22;7285;50.894;5.462;2023-01-01T06:32:35;13.90;1.00
14401;DHT22;7285;50.894;5.462;2023-01-01T06:35:04;13.80;1.00
14401;DHT22;7285;50.894;5.462;2023-01-01T06:37:31;13.70;1.00
14401;DHT22;7285;50.894;5.462;2023-01-01T06:39:58;13.70;1.00
14401;DHT22;7285;50.894;5.462;2023-01-01T06:42:25;13.60;1.00
14401;DHT22;7285;50.894;5.462;2023-01-01T06:44:52;13.60;1.00
14401;DHT22;7285;50.894;5.462;2023-01-01T06:47:19;13.60;1.00
14401;DHT22;7285;50.894;5.462;2023-01-01T06:49:46;13.50;1.00
14401;DHT22;7285;50.894;5.462;2023-01-01T06:52:15;13.50;1.00
14401;DHT22;7285;50.894;5.462;2023-01-01T06:54:42;13.40;1.00
14401;DHT22;7285;50.894;5.462;2023-01-01T06:57:09;13.30;1.00
14401;DHT22;7285;50.894;5.462;2023-01-01T06:59:36;13.20;1.00
14401;DHT22;7285;50.894;5.462;2023-01-01T07:02:11;13.20;1.00
14401;DHT22;7285;50.894;5.462;2023-01-01T07:04:38;13.20;1.00
14401;DHT22;7285;50.894;5.462;2023-01-01T07:07:06;13.10;1.00
14401;DHT22;7285;50.894;5.462;2023-01-01T07:09:34;13.20;1.00
14401;DHT22;7285;50.894;5.462;2023-01-01T07:12:01;13.10;1.00
14401;DHT22;7285;50.894;5.462;2023-01-01T07:14:28;13.10;1.00
14401;DHT22;7285;50.894;5.462;2023-01-01T07:16:55;13.00;1.00
14401;DHT22;7285;50.894;5.462;2023-01-01T07:19:22;13.00;1.00
14401;DHT22;7285;50.894;5.462;2023-01-01T07:21:51;13.00;1.00
14401;DHT22;7285;50.894;5.462;2023-01-01T07:24:20;13.00;1.00
14401;DHT22;7285;50.894;5.462;2023-01-01T07:26:48;13.00;1.00
14401;DHT22;7285;50.894;5.462;2023-01-01T07:29:15;13.10;1.00
14401;DHT22;7285;50.894;5.462;2023-01-01T07:31:43;13.00;1.00
14401;DHT22;7285;50.894;5.462;2023-01-01T07:34:12;13.00;1.00
14401;DHT22;7285;50.894;5.462;2023-01-01T07:36:40;13.00;1.00
14401;DHT22;7285;50.894;5.462;2023-01-01T07:39:07;13.00;1.00
14401;DHT22;7285;50.894;5.462;2023-01-01T07:41:35;13.00;1.00
14401;DHT22;7285;50.894;5.462;2023-01-01T07:44:04;13.10;1.00
14401;DHT22;7285;50.894;5.462;2023-01-01T07:46:33;13.10;1.00
14401;DHT22;7285;50.894;5.462;2023-01-01T07:49:01;13.00;1.00
14401;DHT22;7285;50.894;5.462;2023-01-01T07:51:28;13.00;1.00
14401;DHT22;7285;50.894;5.462;2023-01-01T07:53:55;13.20;1.00
14401;DHT22;7285;50.894;5.462;2023-01-01T07:56:22;13.10;1.00
14401;DHT22;7285;50.894;5.462;2023-01-01T07:58:49;13.10;1.00
14401;DHT22;7285;50.894;5.462;2023-01-01T08:01:18;13.10;99.90
14401;DHT22;7285;50.894;5.462;2023-01-01T08:03:50;13.10;99.90
14401;DHT22;7285;50.894;5.462;2023-01-01T08:06:18;13.10;99.90
14401;DHT22;7285;50.894;5.462;2023-01-01T08:08:46;13.10;99.90
14401;DHT22;7285;50.894;5.462;2023-01-01T08:11:13;13.00;99.90
14401;DHT22;7285;50.894;5.462;2023-01-01T08:13:40;13.00;99.90
14401;DHT22;7285;50.894;5.462;2023-01-01T08:16:07;13.10;99.90
14401;DHT22;7285;50.894;5.462;2023-01-01T08:18:36;13.10;99.90
14401;DHT22;7285;50.894;5.462;2023-01-01T08:21:04;13.10;84.00
14401;DHT22;7285;50.894;5.462;2023-01-01T08:23:31;13.10;99.90
14401;DHT22;7285;50.894;5.462;2023-01-01T08:26:01;13.20;61.20
14401;DHT22;7285;50.894;5.462;2023-01-01T08:28:28;13.20;64.90
14401;DHT22;7285;50.894;5.462;2023-01-01T08:30:56;13.10;77.20
14401;DHT22;7285;50.894;5.462;2023-01-01T08:33:23;13.20;1.00
14401;DHT22;7285;50.894;5.462;2023-01-01T08:35:52;13.20;1.00
14401;DHT22;7285;50.894;5.462;2023-01-01T08:38:19;13.20;1.00
14401;DHT22;7285;50.894;5.462;2023-01-01T08:40:46;13.30;1.00
14401;DHT22;7285;50.894;5.462;2023-01-01T08:43:13;13.30;1.00
14401;DHT22;7285;50.894;5.462;2023-01-01T08:45:40;13.30;1.00
14401;DHT22;7285;50.894;5.462;2023-01-01T08:48:07;13.40;1.00
14401;DHT22;7285;50.894;5.462;2023-01-01T08:50:34;13.40;1.00
14401;DHT22;7285;50.894;5.462;2023-01-01T08:53:04;13.40;1.00
14401;DHT22;7285;50.894;5.462;2023-01-01T08:55:31;13.40;1.00
14401;DHT22;7285;50.894;5.462;2023-01-01T08:57:58;13.40;1.00
14401;DHT22;7285;50.894;5.462;2023-01-01T09:00:25;13.40;1.00
14401;DHT22;7285;50.894;5.462;2023-01-01T09:02:52;13.40;1.00
14401;DHT22;7285;50.894;5.462;2023-01-01T09:05:19;13.40;1.00
14401;DHT22;7285;50.894;5.462;2023-01-01T09:07:46;13.50;1.00
14401;DHT22;7285;50.894;5.462;2023-01-01T09:10:15;13.50;1.00
14401;DHT22;7285;50.894;5.462;2023-01-01T09:12:42;13.60;1.00
14401;DHT22;7285;50.894;5.462;2023-01-01T09:15:14;13.60;1.00
14401;DHT22;7285;50.894;5.462;2023-01-01T09:17:41;13.60;1.00
14401;DHT22;7285;50.894;5.462;2023-01-01T09:20:15;13.60;1.00
14401;DHT22;7285;50.894;5.462;2023-01-01T09:22:42;13.60;1.00
14401;DHT22;7285;50.894;5.462;2023-01-01T09:25:16;13.60;1.00
14401;DHT22;7285;50.894;5.462;2023-01-01T09:27:45;13.60;1.00
14401;DHT22;7285;50.894;5.462;2023-01-01T09:30:13;13.50;1.00
14401;DHT22;7285;50.894;5.462;2023-01-01T09:32:40;13.50;1.00
14401;DHT22;7285;50.894;5.462;2023-01-01T09:35:08;13.50;1.00
14401;DHT22;7285;50.894;5.462;2023-01-01T09:37:35;13.50;1.00
14401;DHT22;7285;50.894;5.462;2023-01-01T09:40:03;13.50;1.00
14401;DHT22;7285;50.894;5.462;2023-01-01T09:42:35;13.60;1.00
14401;DHT22;7285;50.894;5.462;2023-01-01T09:45:20;13.50;1.00
14401;DHT22;7285;50.894;5.462;2023-01-01T09:47:56;13.60;1.00
14401;DHT22;7285;50.894;5.462;2023-01-01T09:50:28;13.60;1.00
14401;DHT22;7285;50.894;5.462;2023-01-01T09:52:59;13.60;1.00
14401;DHT22;7285;50.894;5.462;2023-01-01T09:55:29;13.60;1.00
14401;DHT22;7285;50.894;5.462;2023-01-01T09:58:00;13.60;1.00
14401;DHT22;7285;50.894;5.462;2023-01-01T10:00:30;13.70;1.00
14401;DHT22;7285;50.894;5.462;2023-01-01T10:03:22;13.70;1.00
14401;DHT22;7285;50.894;5.462;2023-01-01T10:05:56;13.70;1.00
14401;DHT22;7285;50.894;5.462;2023-01-01T10:08:35;13.80;1.00
14401;DHT22;7285;50.894;5.462;2023-01-01T10:11:11;13.70;1.00
14401;DHT22;7285;50.894;5.462;2023-01-01T10:13:43;13.80;1.00
14401;DHT22;7285;50.894;5.462;2023-01-01T10:16:14;13.90;1.00
14401;DHT22;7285;50.894;5.462;2023-01-01T10:18:47;13.90;1.00
14401;DHT22;7285;50.894;5.462;2023-01-01T10:21:18;13.90;1.00
14401;DHT22;7285;50.894;5.462;2023-01-01T10:23:49;14.00;1.00
14401;DHT22;7285;50.894;5.462;2023-01-01T10:26:19;14.00;1.00
14401;DHT22;7285;50.894;5.462;2023-01-01T10:28:54;14.00;1.00
14401;DHT22;7285;50.894;5.462;2023-01-01T10:31:29;13.90;1.00
14401;DHT22;7285;50.894;5.462;2023-01-01T10:33:56;14.00;1.00
14401;DHT22;7285;50.894;5.462;2023-01-01T10:36:24;14.00;1.00
14401;DHT22;7285;50.894;5.462;2023-01-01T10:38:51;14.00;1.00
14401;DHT22;7285;50.894;5.462;2023-01-01T10:41:18;14.00;1.00
14401;DHT22;7285;50.894;5.462;2023-01-01T10:43:46;14.00;1.00
14401;DHT22;7285;50.894;5.462;2023-01-01T10:46:18;14.00;1.00
14401;DHT22;7285;50.894;5.462;2023-01-01T10:49:05;14.00;1.00
14401;DHT22;7285;50.894;5.462;2023-01-01T10:51:36;14.10;1.00
14401;DHT22;7285;50.894;5.462;2023-01-01T10:54:03;14.10;1.00
14401;DHT22;7285;50.894;5.462;2023-01-01T10:56:39;14.20;1.00
14401;DHT22;7285;50.894;5.462;2023-01-01T10:59:32;14.20;1.00
14401;DHT22;7285;50.894;5.462;2023-01-01T11:02:15;14.20;1.00
14401;DHT22;7285;50.894;5.462;2023-01-01T11:04:42;14.20;1.00
14401;DHT22;7285;50.894;5.462;2023-01-01T11:07:17;14.20;1.00
14401;DHT22;7285;50.894;5.462;2023-01-01T11:09:47;14.20;1.00
14401;DHT22;7285;50.894;5.462;2023-01-01T11:12:20;14.20;1.00
14401;DHT22;7285;50.894;5.462;2023-01-01T11:14:51;14.30;1.00
14401;DHT22;7285;50.894;5.462;2023-01-01T11:17:21;14.30;1.00
14401;DHT22;7285;50.894;5.462;2023-01-01T11:20:15;14.40;1.00
14401;DHT22;7285;50.894;5.462;2023-01-01T11:22:44;14.40;1.00
14401;DHT22;7285;50.894;5.462;2023-01-01T11:25:20;14.40;1.00
14401;DHT22;7285;50.894;5.462;2023-01-01T11:27:48;14.40;1.00
14401;DHT22;7285;50.894;5.462;2023-01-01T11:30:24;14.40;1.00
14401;DHT22;7285;50.894;5.462;2023-01-01T11:32:55;14.40;1.00
14401;DHT22;7285;50.894;5.462;2023-01-01T11:35:26;14.30;1.00
14401;DHT22;7285;50.894;5.462;2023-01-01T11:37:59;14.30;1.00
14401;DHT22;7285;50.894;5.462;2023-01-01T11:40:31;14.40;1.00
14401;DHT22;7285;50.894;5.462;2023-01-01T11:43:00;14.40;1.00
14401;DHT22;7285;50.894;5.462;2023-01-01T11:45:31;14.40;1.00
14401;DHT22;7285;50.894;5.462;2023-01-01T11:48:03;14.40;1.00
14401;DHT22;7285;50.894;5.462;2023-01-01T11:50:37;14.40;1.00
14401;DHT22;7285;50.894;5.462;2023-01-01T11:53:26;14.30;1.00
14401;DHT22;7285;50.894;5.462;2023-01-01T11:55:59;14.30;1.00
14401;DHT22;7285;50.894;5.462;2023-01-01T11:58:33;14.30;1.00
14401;DHT22;7285;50.894;5.462;2023-01-01T12:01:08;14.30;1.00
14401;DHT22;7285;50.894;5.462;2023-01-01T12:03:40;14.30;1.00
14401;DHT22;7285;50.894;5.462;2023-01-01T12:06:14;14.20;1.00
14401;DHT22;7285;50.894;5.462;2023-01-01T12:08:47;14.20;1.00
14401;DHT22;7285;50.894;5.462;2023-01-01T12:11:22;14.10;1.00
14401;DHT22;7285;50.894;5.462;2023-01-01T12:13:54;14.10;1.00
14401;DHT22;7285;50.894;5.462;2023-01-01T12:16:25;14.10;1.00
14401;DHT22;7285;50.894;5.462;2023-01-01T12:19:00;14.10;1.00
14401;DHT22;7285;50.894;5.462;2023-01-01T12:21:28;14.10;1.00
14401;DHT22;7285;50.894;5.462;2023-01-01T12:23:57;14.10;1.00
14401;DHT22;7285;50.894;5.462;2023-01-01T12:26:25;14.10;1.00
14401;DHT22;7285;50.894;5.462;2023-01-01T12:29:10;14.10;1.00
14401;DHT22;7285;50.894;5.462;2023-01-01T12:31:48;14.10;1.00
14401;DHT22;7285;50.894;5.462;2023-01-01T12:34:23;14.10;1.00
14401;DHT22;7285;50.894;5.462;2023-01-01T12:36:59;14.10;1.00
14401;DHT22;7285;50.894;5.462;2023-01-01T12:39:49;14.10;1.00
14401;DHT22;7285;50.894;5.462;2023-01-01T12:42:31;14.10;1.00
14401;DHT22;7285;50.894;5.462;2023-01-01T12:45:16;14.10;1.00
14401;DHT22;7285;50.894;5.462;2023-01-01T12:47:56;14.10;1.00
14401;DHT22;7285;50.894;5.462;2023-01-01T12:50:36;14.10;1.00
14401;DHT22;7285;50.894;5.462;2023-01-01T12:53:15;14.00;1.00
14401;DHT22;7285;50.894;5.462;2023-01-01T12:56:13;14.00;1.00
14401;DHT22;7285;50.894;5.462;2023-01-01T12:58:44;13.90;1.00
14401;DHT22;7285;50.894;5.462;2023-01-01T13:01:16;14.00;1.00
14401;DHT22;7285;50.894;5.462;2023-01-01T13:03:49;14.00;1.00
14401;DHT22;7285;50.894;5.462;2023-01-01T13:06:23;14.00;1.00
14401;DHT22;7285;50.894;5.462;2023-01-01T13:08:56;14.00;1.00
14401;DHT22;7285;50.894;5.462;2023-01-01T13:11:25;14.00;1.00
14401;DHT22;7285;50.894;5.462;2023-01-01T13:13:54;14.00;1.00
14401;DHT22;7285;50.894;5.462;2023-01-01T13:16:35;14.00;1.00
14401;DHT22;7285;50.894;5.462;2023-01-01T13:19:03;14.00;1.00
14401;DHT22;7285;50.894;5.462;2023-01-01T13:21:32;13.90;1.00
14401;DHT22;7285;50.894;5.462;2023-01-01T13:24:04;14.00;1.00
14401;DHT22;7285;50.894;5.462;2023-01-01T13:26:42;13.90;1.00
14401;DHT22;7285;50.894;5.462;2023-01-01T13:29:43;13.90;1.00
14401;DHT22;7285;50.894;5.462;2023-01-01T13:32:13;13.90;1.00
14401;DHT22;7285;50.894;5.462;2023-01-01T13:35:16;13.90;1.00
14401;DHT22;7285;50.894;5.462;2023-01-01T13:37:46;13.80;1.00
14401;DHT22;7285;50.894;5.462;2023-01-01T13:43:28;13.70;1.00
14401;DHT22;7285;50.894;5.462;2023-01-01T13:45:58;13.80;1.00
14401;DHT22;7285;50.894;5.462;2023-01-01T13:54:59;13.70;1.00
14401;DHT22;7285;50.894;5.462;2023-01-01T13:57:52;13.70;1.00
14401;DHT22;7285;50.894;5.462;2023-01-01T14:00:24;13.60;1.00
14401;DHT22;7285;50.894;5.462;2023-01-01T14:02:59;13.60;1.00
14401;DHT22;7285;50.894;5.462;2023-01-01T14:05:29;13.60;1.00
14401;DHT22;7285;50.894;5.462;2023-01-01T14:07:58;13.50;1.00
14401;DHT22;7285;50.894;5.462;2023-01-01T14:10:28;13.50;1.00
14401;DHT22;7285;50.894;5.462;2023-01-01T14:13:12;13.50;1.00
14401;DHT22;7285;50.894;5.462;2023-01-01T14:15:48;13.50;1.00
14401;DHT22;7285;50.894;5.462;2023-01-01T14:18:17;13.50;1.00
14401;DHT22;7285;50.894;5.462;2023-01-01T14:20:47;13.40;1.00
14401;DHT22;7285;50.894;5.462;2023-01-01T14:23:18;13.40;1.00
14401;DHT22;7285;50.894;5.462;2023-01-01T14:25:47;13.40;1.00
14401;DHT22;7285;50.894;5.462;2023-01-01T14:28:18;13.40;1.00
14401;DHT22;7285;50.894;5.462;2023-01-01T14:30:45;13.30;1.00
14401;DHT22;7285;50.894;5.462;2023-01-01T14:33:21;13.30;1.00
14401;DHT22;7285;50.894;5.462;2023-01-01T14:35:55;13.20;1.00
14401;DHT22;7285;50.894;5.462;2023-01-01T14:38:31;13.20;1.00
14401;DHT22;7285;50.894;5.462;2023-01-01T14:41:08;13.20;1.00
14401;DHT22;7285;50.894;5.462;2023-01-01T14:43:37;13.00;1.00
14401;DHT22;7285;50.894;5.462;2023-01-01T14:46:06;13.00;2.00
14401;DHT22;7285;50.894;5.462;2023-01-01T14:48:34;12.90;52.10
14401;DHT22;7285;50.894;5.462;2023-01-01T14:51:02;12.80;99.90
14401;DHT22;7285;50.894;5.462;2023-01-01T14:53:31;12.70;99.90
14401;DHT22;7285;50.894;5.462;2023-01-01T14:55:59;12.60;1.00
14401;DHT22;7285;50.894;5.462;2023-01-01T14:58:33;12.50;1.00
14401;DHT22;7285;50.894;5.462;2023-01-01T15:01:16;12.50;1.00
14401;DHT22;7285;50.894;5.462;2023-01-01T15:03:54;12.40;1.00
14401;DHT22;7285;50.894;5.462;2023-01-01T15:06:30;12.30;99.90
14401;DHT22;7285;50.894;5.462;2023-01-01T15:08:58;12.30;99.90
14401;DHT22;7285;50.894;5.462;2023-01-01T15:11:25;12.20;99.90
14401;DHT22;7285;50.894;5.462;2023-01-01T15:13:58;12.20;1.00
14401;DHT22;7285;50.894;5.462;2023-01-01T15:16:26;12.10;1.00
14401;DHT22;7285;50.894;5.462;2023-01-01T15:18:54;12.10;1.00
14401;DHT22;7285;50.894;5.462;2023-01-01T15:21:35;12.00;1.00
14401;DHT22;7285;50.894;5.462;2023-01-01T15:24:09;12.00;35.50
14401;DHT22;7285;50.894;5.462;2023-01-01T15:26:41;11.90;99.90
14401;DHT22;7285;50.894;5.462;2023-01-01T15:29:15;11.90;1.00
14401;DHT22;7285;50.894;5.462;2023-01-01T15:31:47;11.80;99.90
14401;DHT22;7285;50.894;5.462;2023-01-01T15:34:21;11.80;99.90
14401;DHT22;7285;50.894;5.462;2023-01-01T15:36:50;11.70;99.90
14401;DHT22;7285;50.894;5.462;2023-01-01T15:39:19;11.70;99.90
14401;DHT22;7285;50.894;5.462;2023-01-01T15:41:47;11.70;1.00
14401;DHT22;7285;50.894;5.462;2023-01-01T15:44:26;11.70;1.00
14401;DHT22;7285;50.894;5.462;2023-01-01T15:47:04;11.70;1.00
14401;DHT22;7285;50.894;5.462;2023-01-01T15:49:31;11.60;1.00
14401;DHT22;7285;50.894;5.462;2023-01-01T15:52:02;11.60;99.90
14401;DHT22;7285;50.894;5.462;2023-01-01T15:54:31;11.60;1.00
14401;DHT22;7285;50.894;5.462;2023-01-01T15:57:02;11.50;1.00
14401;DHT22;7285;50.894;5.462;2023-01-01T15:59:33;11.50;99.90
14401;DHT22;7285;50.894;5.462;2023-01-01T16:02:10;11.50;1.00
14401;DHT22;7285;50.894;5.462;2023-01-01T16:04:39;11.40;1.00
14401;DHT22;7285;50.894;5.462;2023-01-01T16:07:14;11.40;99.90
14401;DHT22;7285;50.894;5.462;2023-01-01T16:09:43;11.40;99.90
14401;DHT22;7285;50.894;5.462;2023-01-01T16:12:10;11.30;1.00
14401;DHT22;7285;50.894;5.462;2023-01-01T16:14:39;11.30;7.50
14401;DHT22;7285;50.894;5.462;2023-01-01T16:17:10;11.30;99.90
14401;DHT22;7285;50.894;5.462;2023-01-01T16:19:39;11.20;1.00
14401;DHT22;7285;50.894;5.462;2023-01-01T16:22:06;11.20;90.50
14401;DHT22;7285;50.894;5.462;2023-01-01T16:24:33;11.20;99.90
14401;DHT22;7285;50.894;5.462;2023-01-01T16:27:01;11.20;99.90
14401;DHT22;7285;50.894;5.462;2023-01-01T16:29:28;11.20;1.00
14401;DHT22;7285;50.894;5.462;2023-01-01T16:31:56;11.20;1.00
14401;DHT22;7285;50.894;5.462;2023-01-01T16:34:23;11.20;99.90